createdAt,value
2018-01-26T00:01:43.461Z,6.67
2018-01-26T00:04:12.239Z,7.20
2018-01-26T00:06:45.152Z,6.23
2018-01-26T00:09:17.170Z,5.57
2018-01-26T00:11:46.735Z,6.53
2018-01-26T00:14:17.160Z,5.60
2018-01-26T00:16:47.167Z,6.13
2018-01-26T00:19:16.228Z,5.93
2018-01-26T00:21:45.669Z,9.63
2018-01-26T00:24:13.414Z,6.43
2018-01-26T00:26:43.951Z,6.37
2018-01-26T00:29:13.124Z,5.70
2018-01-26T00:31:40.875Z,6.03
2018-01-26T00:34:11.712Z,7.30
2018-01-26T00:36:46.514Z,7.63
2018-01-26T00:39:14.510Z,8.10
2018-01-26T00:41:43.273Z,7.47
2018-01-26T00:44:13.827Z,8.03
2018-01-26T00:46:46.436Z,7.13
2018-01-26T00:49:14.098Z,6.43
2018-01-26T00:51:42.174Z,5.93
2018-01-26T00:54:12.996Z,6.03
2018-01-26T00:56:43.650Z,7.37
2018-01-26T00:59:14.804Z,7.50
2018-01-26T01:01:45.738Z,10.20
2018-01-26T01:04:17.830Z,10.73
2018-01-26T01:06:48.308Z,11.13
2018-01-26T01:09:17.969Z,9.10
2018-01-26T01:11:49.908Z,8.53
2018-01-26T01:14:21.020Z,7.07
2018-01-26T01:16:59.417Z,7.23
2018-01-26T01:19:30.949Z,7.97
2018-01-26T01:22:09.548Z,6.03
2018-01-26T01:24:43.259Z,7.50
2018-01-26T01:27:13.007Z,6.97
2018-01-26T01:29:44.837Z,6.40
2018-01-26T01:32:14.661Z,5.33
2018-01-26T01:34:50.499Z,4.57
2018-01-26T01:37:22.367Z,4.73
2018-01-26T01:40:01.565Z,4.53
2018-01-26T01:42:42.394Z,5.27
2018-01-26T01:45:24.266Z,5.27
2018-01-26T01:48:04.013Z,5.10
2018-01-26T01:50:33.363Z,6.10
2018-01-26T01:53:08.020Z,6.17
2018-01-26T01:55:51.066Z,6.13
2018-01-26T01:58:23.127Z,6.03
2018-01-26T02:00:57.008Z,6.23
2018-01-26T02:03:29.814Z,5.33
2018-01-26T02:06:02.891Z,4.70
2018-01-26T02:08:36.082Z,4.80
2018-01-26T02:11:06.003Z,4.73
2018-01-26T02:13:39.084Z,4.50
2018-01-26T02:16:18.324Z,4.73
2018-01-26T02:18:51.821Z,4.90
2018-01-26T02:21:23.339Z,5.57
2018-01-26T02:23:56.665Z,5.73
2018-01-26T02:26:32.259Z,5.67
2018-01-26T02:29:04.345Z,4.43
2018-01-26T02:31:35.767Z,3.70
2018-01-26T02:34:06.785Z,3.70
2018-01-26T02:36:46.881Z,3.67
2018-01-26T02:39:18.677Z,3.80
2018-01-26T02:41:48.933Z,3.80
2018-01-26T02:44:19.334Z,3.63
2018-01-26T02:46:51.932Z,2.90
2018-01-26T02:49:25.902Z,4.00
2018-01-26T02:52:03.805Z,4.80
2018-01-26T02:54:44.326Z,4.80
2018-01-26T02:57:15.721Z,5.70
2018-01-26T02:59:52.388Z,5.83
2018-01-26T03:02:21.238Z,5.30
2018-01-26T03:07:39.413Z,4.40
2018-01-26T03:10:14.709Z,4.07
2018-01-26T03:12:47.060Z,3.70
2018-01-26T03:15:20.429Z,4.10
2018-01-26T03:17:56.807Z,3.93
2018-01-26T03:20:26.712Z,3.50
2018-01-26T03:22:57.618Z,3.30
2018-01-26T03:25:36.516Z,3.83
2018-01-26T03:28:08.688Z,4.73
2018-01-26T03:30:48.146Z,5.20
2018-01-26T03:33:19.500Z,4.83
2018-01-26T03:35:58.954Z,13.57
2018-01-26T03:38:28.690Z,14.80
2018-01-26T03:40:58.971Z,10.80
2018-01-26T03:43:31.475Z,8.87
2018-01-26T03:46:03.644Z,9.30
2018-01-26T03:48:35.700Z,9.10
2018-01-26T03:51:06.031Z,7.97
2018-01-26T03:53:36.463Z,7.13
2018-01-26T03:56:09.293Z,6.33
2018-01-26T03:58:38.781Z,5.97
2018-01-26T04:01:08.145Z,4.60
2018-01-26T04:03:43.460Z,6.07
2018-01-26T04:06:23.985Z,15.20
2018-01-26T04:08:53.724Z,13.93
2018-01-26T04:11:28.862Z,11.63
2018-01-26T04:14:01.714Z,7.23
2018-01-26T04:16:36.845Z,5.20
2018-01-26T04:19:06.357Z,4.73
2018-01-26T04:21:34.831Z,5.50
2018-01-26T04:24:03.577Z,5.30
2018-01-26T04:26:36.490Z,5.13
2018-01-26T04:29:14.915Z,6.83
2018-01-26T04:31:50.393Z,5.03
2018-01-26T04:34:21.713Z,7.20
2018-01-26T04:36:52.384Z,7.87
2018-01-26T04:39:22.214Z,6.70
2018-01-26T04:41:55.412Z,5.53
2018-01-26T04:44:28.334Z,5.70
2018-01-26T04:46:58.161Z,5.87
2018-01-26T04:49:31.820Z,8.90
2018-01-26T04:52:08.033Z,9.97
2018-01-26T04:54:46.074Z,9.87
2018-01-26T04:57:16.472Z,11.87
2018-01-26T04:59:45.529Z,12.13
2018-01-26T05:02:21.799Z,8.27
2018-01-26T05:05:03.273Z,8.83
2018-01-26T05:07:40.452Z,8.77
2018-01-26T05:15:59.630Z,12.43
2018-01-26T05:18:40.078Z,14.50
2018-01-26T05:21:19.908Z,17.47
2018-01-26T05:23:48.871Z,19.97
2018-01-26T05:26:26.289Z,17.60
2018-01-26T05:28:55.200Z,14.63
2018-01-26T05:31:27.890Z,25.17
2018-01-26T05:33:58.460Z,18.80
2018-01-26T05:36:27.176Z,20.77
2018-01-26T05:38:57.958Z,15.17
2018-01-26T05:41:29.618Z,23.83
2018-01-26T05:44:00.197Z,21.80
2018-01-26T05:46:29.545Z,20.83
2018-01-26T05:48:59.059Z,28.47
2018-01-26T05:51:29.075Z,24.97
2018-01-26T05:54:02.873Z,28.20
2018-01-26T05:56:30.878Z,20.47
2018-01-26T05:58:58.834Z,15.23
2018-01-26T06:01:33.331Z,14.53
2018-01-26T06:04:13.731Z,14.07
2018-01-26T06:06:42.991Z,14.23
2018-01-26T06:09:13.144Z,9.23
2018-01-26T06:11:42.305Z,13.57
2018-01-26T06:14:17.341Z,12.00
2018-01-26T06:16:48.942Z,14.13
2018-01-26T06:19:26.388Z,13.50
2018-01-26T06:21:58.150Z,14.73
2018-01-26T06:24:36.149Z,13.43
2018-01-26T06:27:06.165Z,12.37
2018-01-26T06:29:37.508Z,9.37
2018-01-26T06:32:11.572Z,9.37
2018-01-26T06:34:44.445Z,7.70
2018-01-26T06:37:14.721Z,7.30
2018-01-26T06:39:45.842Z,8.30
2018-01-26T06:42:16.540Z,9.30
2018-01-26T06:44:56.610Z,11.00
2018-01-26T06:47:26.887Z,17.87
2018-01-26T06:50:01.075Z,19.93
2018-01-26T06:52:35.241Z,19.97
2018-01-26T06:55:17.074Z,18.20
2018-01-26T06:57:48.608Z,11.87
2018-01-26T07:00:16.341Z,10.40
2018-01-26T07:02:43.038Z,8.73
2018-01-26T07:05:11.174Z,8.37
2018-01-26T07:07:38.428Z,8.27
2018-01-26T07:10:11.917Z,7.60
2018-01-26T07:12:44.570Z,7.50
2018-01-26T07:15:27.173Z,7.73
2018-01-26T07:17:59.912Z,8.27
2018-01-26T07:20:27.741Z,7.73
2018-01-26T07:23:00.540Z,9.43
2018-01-26T07:25:30.659Z,8.80
2018-01-26T07:27:57.234Z,10.37
2018-01-26T07:30:24.898Z,19.97
2018-01-26T07:32:51.926Z,17.97
2018-01-26T07:35:19.111Z,21.37
2018-01-26T07:37:51.974Z,16.80
2018-01-26T07:40:18.890Z,13.53
2018-01-26T07:42:46.389Z,31.87
2018-01-26T07:45:15.882Z,15.10
2018-01-26T07:47:48.875Z,26.03
2018-01-26T07:50:17.194Z,13.37
2018-01-26T07:52:45.966Z,25.97
2018-01-26T07:55:22.099Z,25.27
2018-01-26T07:57:48.779Z,18.87
2018-01-26T08:00:15.427Z,15.33
2018-01-26T08:02:48.356Z,13.67
2018-01-26T08:05:18.187Z,10.53
2018-01-26T08:07:45.372Z,18.40
2018-01-26T08:10:18.210Z,13.67
2018-01-26T08:12:45.556Z,8.13
2018-01-26T08:15:13.267Z,8.60
2018-01-26T08:17:39.661Z,6.40
2018-01-26T08:20:07.422Z,6.23
2018-01-26T08:22:34.041Z,24.53
2018-01-26T08:25:01.292Z,5.77
2018-01-26T08:27:28.689Z,8.90
2018-01-26T08:29:56.365Z,7.53
2018-01-26T08:32:24.196Z,5.30
2018-01-26T08:34:50.989Z,7.70
2018-01-26T08:37:18.797Z,9.77
2018-01-26T08:39:48.296Z,9.00
2018-01-26T08:42:16.200Z,10.50
2018-01-26T08:44:45.822Z,6.07
2018-01-26T08:47:13.297Z,6.97
2018-01-26T08:49:41.016Z,6.57
2018-01-26T08:52:08.465Z,5.63
2018-01-26T08:54:35.973Z,8.57
2018-01-26T08:57:05.231Z,3.80
2018-01-26T08:59:33.148Z,7.13
2018-01-26T09:02:01.267Z,4.43
2018-01-26T09:04:28.329Z,11.60
2018-01-26T09:07:01.019Z,11.63
2018-01-26T09:09:27.850Z,8.67
2018-01-26T09:12:01.188Z,10.27
2018-01-26T09:14:33.286Z,7.13
2018-01-26T09:17:02.355Z,5.50
2018-01-26T09:19:32.956Z,7.20
2018-01-26T09:22:06.325Z,5.43
2018-01-26T09:24:32.900Z,10.60
2018-01-26T09:27:05.306Z,4.60
2018-01-26T09:29:32.595Z,7.60
2018-01-26T09:32:06.014Z,11.17
2018-01-26T09:34:34.675Z,5.60
2018-01-26T09:37:02.140Z,6.63
2018-01-26T09:39:35.267Z,4.50
2018-01-26T09:42:03.199Z,5.03
2018-01-26T09:44:30.161Z,7.20
2018-01-26T09:46:59.067Z,6.67
2018-01-26T09:49:27.353Z,7.23
2018-01-26T09:51:54.462Z,9.37
2018-01-26T09:54:28.151Z,5.43
2018-01-26T09:57:01.450Z,7.70
2018-01-26T09:59:30.414Z,5.10
2018-01-26T10:01:57.647Z,12.50
2018-01-26T10:04:25.070Z,10.60
2018-01-26T10:06:51.663Z,7.87
2018-01-26T10:09:18.703Z,6.50
2018-01-26T10:11:45.514Z,9.77
2018-01-26T10:14:13.812Z,8.67
2018-01-26T10:16:48.857Z,8.70
2018-01-26T10:19:16.353Z,7.67
2018-01-26T10:21:49.080Z,11.97
2018-01-26T10:24:25.061Z,11.03
2018-01-26T10:26:52.976Z,6.07
2018-01-26T10:29:20.030Z,4.07
2018-01-26T10:31:47.127Z,10.27
2018-01-26T10:34:13.846Z,5.03
2018-01-26T10:36:42.070Z,7.67
2018-01-26T10:39:16.681Z,11.77
2018-01-26T10:41:45.447Z,5.20
2018-01-26T10:44:16.029Z,4.07
2018-01-26T10:46:42.878Z,6.67
2018-01-26T10:49:09.827Z,14.13
2018-01-26T10:51:42.144Z,17.27
2018-01-26T10:54:16.288Z,19.63
2018-01-26T10:56:49.425Z,18.37
2018-01-26T10:59:22.988Z,16.37
2018-01-26T11:01:49.976Z,21.23
2018-01-26T11:04:16.874Z,12.43
2018-01-26T11:06:43.336Z,20.13
2018-01-26T11:09:09.838Z,13.47
2018-01-26T11:11:36.775Z,51.30
2018-01-26T11:14:03.679Z,5.67
2018-01-26T11:16:30.577Z,13.30
2018-01-26T11:18:57.742Z,8.80
2018-01-26T11:21:24.978Z,18.67
2018-01-26T11:23:53.421Z,6.73
2018-01-26T11:26:20.902Z,8.93
2018-01-26T11:28:47.569Z,14.13
2018-01-26T11:31:14.298Z,9.53
2018-01-26T11:33:43.037Z,6.10
2018-01-26T11:36:10.458Z,7.53
2018-01-26T11:38:36.969Z,32.90
2018-01-26T11:41:04.334Z,18.23
2018-01-26T11:43:32.157Z,4.53
2018-01-26T11:45:58.712Z,7.77
2018-01-26T11:48:25.322Z,6.77
2018-01-26T11:50:51.909Z,10.23
2018-01-26T11:53:20.169Z,16.40
2018-01-26T11:55:47.341Z,5.83
2018-01-26T11:58:14.025Z,7.00
2018-01-26T12:00:41.483Z,9.50
2018-01-26T12:03:11.730Z,19.33
2018-01-26T12:05:38.660Z,20.40
2018-01-26T12:08:05.396Z,45.13
2018-01-26T12:10:32.596Z,61.27
2018-01-26T12:13:00.800Z,37.87
2018-01-26T12:15:28.361Z,28.10
2018-01-26T12:17:55.109Z,13.17
2018-01-26T12:20:22.588Z,6.93
2018-01-26T12:22:50.349Z,7.03
2018-01-26T12:25:18.324Z,4.27
2018-01-26T12:27:44.859Z,3.87
2018-01-26T12:30:11.285Z,5.90
2018-01-26T12:32:37.881Z,5.90
2018-01-26T12:35:08.719Z,6.83
2018-01-26T12:37:39.783Z,5.90
2018-01-26T12:40:10.286Z,12.47
2018-01-26T12:42:43.093Z,5.20
2018-01-26T12:45:13.940Z,3.40
2018-01-26T12:47:44.254Z,5.90
2018-01-26T12:50:14.974Z,9.00
2018-01-26T12:52:45.741Z,20.97
2018-01-26T12:55:21.520Z,9.63
2018-01-26T12:57:52.003Z,9.33
2018-01-26T13:00:21.863Z,21.83
2018-01-26T13:02:50.191Z,16.57
2018-01-26T13:05:18.595Z,8.10
2018-01-26T13:07:47.398Z,18.97
2018-01-26T13:10:17.321Z,6.10
2018-01-26T13:12:48.399Z,8.13
2018-01-26T13:15:17.947Z,14.80
2018-01-26T13:17:48.760Z,6.70
2018-01-26T13:20:22.088Z,16.53
2018-01-26T13:22:52.669Z,22.80
2018-01-26T13:25:21.557Z,8.93
2018-01-26T13:27:52.445Z,8.57
2018-01-26T13:30:25.171Z,6.17
2018-01-26T13:32:57.076Z,11.97
2018-01-26T13:35:28.792Z,11.37
2018-01-26T13:38:02.704Z,8.80
2018-01-26T13:40:32.671Z,13.97
2018-01-26T13:43:05.050Z,8.63
2018-01-26T13:45:39.421Z,6.97
2018-01-26T13:48:13.000Z,4.10
2018-01-26T13:53:20.100Z,7.00
2018-01-26T13:55:52.090Z,4.30
2018-01-26T13:58:24.857Z,5.80
2018-01-26T14:00:57.982Z,23.07
2018-01-26T14:03:30.076Z,6.00
2018-01-26T14:06:00.554Z,5.00
2018-01-26T14:08:32.640Z,8.20
2018-01-26T14:11:05.021Z,4.20
2018-01-26T14:13:39.634Z,21.77
2018-01-26T14:16:10.353Z,10.70
2018-01-26T14:18:40.918Z,24.97
2018-01-26T14:21:12.211Z,5.97
2018-01-26T14:23:45.928Z,11.23
2018-01-26T14:26:20.604Z,16.40
2018-01-26T14:28:52.248Z,7.47
2018-01-26T14:31:24.470Z,9.93
2018-01-26T14:33:54.817Z,11.73
2018-01-26T14:36:22.260Z,9.93
2018-01-26T14:38:50.564Z,14.07
2018-01-26T14:41:18.908Z,9.30
2018-01-26T14:43:51.134Z,9.90
2018-01-26T14:46:20.005Z,6.50
2018-01-26T14:48:51.076Z,11.20
2018-01-26T14:51:19.330Z,12.87
2018-01-26T14:53:53.329Z,15.87
2018-01-26T14:56:22.195Z,19.87
2018-01-26T14:58:51.269Z,28.00
2018-01-26T15:01:21.679Z,66.70
2018-01-26T15:03:55.020Z,46.07
2018-01-26T15:06:26.826Z,23.57
2018-01-26T15:08:55.348Z,18.03
2018-01-26T15:11:24.430Z,15.23
2018-01-26T15:13:59.520Z,13.60
2018-01-26T15:16:32.033Z,11.17
2018-01-26T15:19:04.213Z,15.60
2018-01-26T15:21:36.656Z,17.53
2018-01-26T15:24:09.740Z,15.93
2018-01-26T15:26:43.149Z,15.73
2018-01-26T15:29:14.037Z,15.57
2018-01-26T15:34:21.853Z,20.00
2018-01-26T15:36:55.178Z,16.70
2018-01-26T15:39:26.472Z,24.30
2018-01-26T15:41:59.346Z,23.27
2018-01-26T15:44:32.880Z,27.17
2018-01-26T15:47:04.660Z,26.87
2018-01-26T15:49:31.854Z,28.70
2018-01-26T15:52:00.549Z,20.03
2018-01-26T15:54:33.644Z,15.33
2018-01-26T15:57:04.294Z,17.43
2018-01-26T15:59:34.361Z,13.90
2018-01-26T16:02:06.674Z,21.70
2018-01-26T16:04:40.250Z,22.77
2018-01-26T16:07:13.771Z,19.63
2018-01-26T16:09:42.193Z,18.50
2018-01-26T16:12:10.224Z,20.20
2018-01-26T16:14:40.045Z,32.13
2018-01-26T16:17:06.354Z,31.07
2018-01-26T16:19:38.333Z,28.63
2018-01-26T16:22:06.010Z,22.53
2018-01-26T16:24:35.811Z,26.87
2018-01-26T16:27:07.187Z,25.97
2018-01-26T16:29:35.804Z,32.57
2018-01-26T16:32:04.700Z,23.63
2018-01-26T16:34:36.898Z,20.37
2018-01-26T16:37:06.412Z,24.23
2018-01-26T16:39:37.924Z,26.00
2018-01-26T16:42:09.122Z,24.93
2018-01-26T16:44:37.767Z,18.13
2018-01-26T16:47:04.395Z,19.97
2018-01-26T16:49:31.624Z,28.60
2018-01-26T16:51:58.774Z,19.97
2018-01-26T16:54:27.493Z,19.13
2018-01-26T16:56:55.763Z,18.93
2018-01-26T16:59:24.749Z,22.53
2018-01-26T17:01:51.031Z,23.23
2018-01-26T17:04:32.583Z,24.13
2018-01-26T17:06:59.173Z,18.23
2018-01-26T17:09:26.777Z,21.87
2018-01-26T17:11:54.352Z,21.97
2018-01-26T17:14:22.829Z,24.30
2018-01-26T17:16:49.753Z,19.10
2018-01-26T17:19:16.868Z,17.97
2018-01-26T17:21:43.608Z,12.93
2018-01-26T17:24:14.796Z,14.93
2018-01-26T17:26:43.689Z,15.17
2018-01-26T17:29:10.119Z,14.23
2018-01-26T17:31:36.734Z,17.33
2018-01-26T17:34:05.031Z,16.70
2018-01-26T17:36:31.631Z,21.90
2018-01-26T17:38:58.418Z,15.70
2018-01-26T17:41:25.532Z,28.30
2018-01-26T17:43:53.046Z,20.13
2018-01-26T17:46:20.637Z,26.53
2018-01-26T17:48:47.628Z,22.33
2018-01-26T17:51:13.990Z,23.77
2018-01-26T17:53:45.059Z,28.87
2018-01-26T17:56:11.355Z,23.27
2018-01-26T17:58:37.800Z,32.73
2018-01-26T18:01:04.607Z,25.73
2018-01-26T18:03:32.730Z,25.50
2018-01-26T18:05:59.763Z,27.60
2018-01-26T18:08:26.304Z,38.23
2018-01-26T18:10:53.822Z,27.83
2018-01-26T18:13:22.669Z,25.43
2018-01-26T18:15:50.535Z,24.43
2018-01-26T18:18:18.202Z,24.23
2018-01-26T18:20:45.298Z,24.43
2018-01-26T18:23:13.311Z,21.47
2018-01-26T18:25:40.066Z,17.53
2018-01-26T18:28:06.970Z,15.47
2018-01-26T18:30:33.388Z,20.43
2018-01-26T18:32:59.907Z,15.73
2018-01-26T18:35:26.778Z,19.60
2018-01-26T18:37:53.107Z,13.27
2018-01-26T18:40:19.411Z,11.53
2018-01-26T18:42:46.421Z,21.30
2018-01-26T18:45:12.888Z,12.20
2018-01-26T18:47:39.354Z,22.17
2018-01-26T18:50:05.894Z,23.47
2018-01-26T18:52:32.457Z,19.93
2018-01-26T18:54:58.818Z,22.20
2018-01-26T18:57:25.545Z,13.43
2018-01-26T18:59:51.899Z,17.60
2018-01-26T19:02:18.902Z,26.37
2018-01-26T19:04:45.202Z,17.90
2018-01-26T19:07:12.429Z,16.33
2018-01-26T19:09:38.856Z,18.30
2018-01-26T19:12:06.439Z,25.30
2018-01-26T19:14:34.057Z,27.13
2018-01-26T19:17:01.394Z,21.77
2018-01-26T19:19:29.078Z,18.93
2018-01-26T19:21:56.214Z,16.33
2018-01-26T19:24:25.141Z,17.83
2018-01-26T19:29:30.701Z,20.47
2018-01-26T19:31:59.314Z,18.47
2018-01-26T19:34:26.096Z,14.90
2018-01-26T19:36:52.539Z,24.27
2018-01-26T19:39:19.483Z,14.03
2018-01-26T19:41:48.215Z,19.00
2018-01-26T19:44:14.903Z,17.50
2018-01-26T19:46:42.948Z,15.37
2018-01-26T19:49:10.824Z,15.60
2018-01-26T19:51:38.284Z,14.57
2018-01-26T19:54:06.075Z,15.63
2018-01-26T19:56:33.186Z,15.13
2018-01-26T19:59:00.209Z,20.73
2018-01-26T20:01:26.948Z,24.00
2018-01-26T20:04:04.290Z,13.80
2018-01-26T20:06:42.761Z,15.37
2018-01-26T20:09:10.307Z,11.43
2018-01-26T20:11:37.951Z,16.37
2018-01-26T20:14:14.879Z,17.67
2018-01-26T20:16:44.620Z,16.63
2018-01-26T20:19:15.919Z,13.90
2018-01-26T20:21:43.140Z,18.17
2018-01-26T20:24:11.359Z,13.33
2018-01-26T20:26:39.846Z,15.57
2018-01-26T20:29:07.464Z,12.43
2018-01-26T20:31:35.533Z,14.30
2018-01-26T20:34:05.743Z,10.57
2018-01-26T20:36:32.490Z,12.20
2018-01-26T20:39:00.283Z,12.37
2018-01-26T20:41:27.377Z,16.33
2018-01-26T20:43:56.130Z,13.70
2018-01-26T20:46:30.324Z,18.87
2018-01-26T20:49:01.816Z,22.37
2018-01-26T20:54:04.835Z,18.93
2018-01-26T20:56:31.286Z,18.00
2018-01-26T20:58:59.846Z,27.07
2018-01-26T21:01:26.960Z,21.07
2018-01-26T21:03:57.430Z,15.73
2018-01-26T21:06:28.118Z,14.40
2018-01-26T21:08:57.337Z,19.77
2018-01-26T21:11:28.255Z,12.20
2018-01-26T21:14:02.248Z,20.83
2018-01-26T21:16:33.733Z,13.53
2018-01-26T21:19:02.816Z,12.73
2018-01-26T21:21:33.326Z,14.20
2018-01-26T21:24:03.351Z,15.83
2018-01-26T21:26:33.849Z,15.17
2018-01-26T21:29:04.678Z,22.27
2018-01-26T21:31:36.162Z,16.93
2018-01-26T21:34:06.620Z,19.63
2018-01-26T21:36:35.491Z,18.73
2018-01-26T21:39:04.014Z,17.83
2018-01-26T21:41:32.646Z,16.77
2018-01-26T21:44:02.628Z,18.60
2018-01-26T21:46:32.476Z,18.03
2018-01-26T21:49:04.023Z,12.10
2018-01-26T21:51:35.590Z,11.40
2018-01-26T21:54:12.771Z,14.50
2018-01-26T21:56:41.258Z,12.83
2018-01-26T22:07:43.145Z,14.33
2018-01-26T22:10:21.224Z,11.87
2018-01-26T22:13:03.158Z,19.73
2018-01-26T22:21:53.987Z,10.40
2018-01-26T22:24:26.543Z,12.87
2018-01-26T22:27:02.257Z,17.03
2018-01-26T22:29:32.345Z,13.20
2018-01-26T22:32:05.844Z,11.87
2018-01-26T22:34:39.444Z,14.83
2018-01-26T22:37:09.477Z,12.97
2018-01-26T22:39:40.284Z,14.27
2018-01-26T22:42:09.512Z,16.80
2018-01-26T22:44:40.840Z,22.23
2018-01-26T22:47:11.288Z,18.00
2018-01-26T22:49:40.822Z,20.23
2018-01-26T22:52:13.126Z,18.67
2018-01-26T22:54:45.985Z,22.13
2018-01-26T22:57:18.828Z,25.40
2018-01-26T22:59:51.282Z,25.77
2018-01-26T23:02:18.243Z,23.43
2018-01-26T23:04:53.504Z,20.53
2018-01-26T23:07:25.016Z,20.90
2018-01-26T23:09:54.231Z,19.93
2018-01-26T23:12:33.018Z,19.53
2018-01-26T23:15:01.109Z,19.17
2018-01-26T23:20:08.832Z,16.13
2018-01-26T23:22:40.470Z,18.30
2018-01-26T23:25:12.842Z,15.47
2018-01-26T23:27:42.042Z,16.43
2018-01-26T23:30:18.405Z,16.63
2018-01-26T23:32:47.605Z,15.43
2018-01-26T23:35:22.638Z,14.50
2018-01-26T23:37:56.732Z,14.57
2018-01-26T23:40:33.930Z,12.77
2018-01-26T23:43:08.282Z,18.13
2018-01-26T23:45:38.026Z,21.67
2018-01-26T23:48:12.678Z,22.93
2018-01-26T23:50:46.852Z,15.50
2018-01-26T23:53:27.065Z,14.67
2018-01-26T23:55:59.777Z,13.23
2018-01-26T23:58:30.399Z,15.97
